Time;durP1;ratioP1;P1;durP2;ratioP2;P2;SDS_P1;SDS_P2;PMS_P1;PMS_P2;Temp;Humidity;BMP_temperature;BMP_pressure;BME280_temperature;BME280_humidity;BME280_pressure;Samples;Min_cycle;Max_cycle;Signal;HPM_P1;HPM_P2
2023/01/16 00:01:02;;;;;;;1.97;1.00;;;;;;;;;;5057560;28;20177;-83
2023/01/16 00:03:27;;;;;;;1.40;1.10;;;;;;;;;;5054499;28;20288;-82
2023/01/16 00:05:52;;;;;;;5.03;1.00;;;;;;;;;;5053262;28;20197;-82
2023/01/16 00:08:17;;;;;;;2.93;0.90;;;;;;;;;;5052814;28;20207;-82
2023/01/16 00:10:43;;;;;;;4.37;1.30;;;;;;;;;;5053154;28;20174;-82
2023/01/16 00:13:09;;;;;;;7.30;1.63;;;;;;;;;;5052040;28;20231;-83
2023/01/16 00:15:35;;;;;;;3.77;1.00;;;;;;;;;;5053262;28;20369;-82
2023/01/16 00:18:00;;;;;;;1.53;1.13;;;;;;;;;;5059815;28;20181;-83
2023/01/16 00:20:25;;;;;;;1.17;0.80;;;;;;;;;;5075172;28;20264;-82
2023/01/16 00:22:50;;;;;;;6.10;1.20;;;;;;;;;;5067111;28;20204;-83
2023/01/16 00:25:15;;;;;;;1.43;1.10;;;;;;;;;;5068054;28;20194;-82
2023/01/16 00:27:41;;;;;;;1.43;1.10;;;;;;;;;;5068226;28;20177;-83
2023/01/16 00:30:06;;;;;;;2.70;1.30;;;;;;;;;;5067905;28;20176;-82
2023/01/16 00:32:31;;;;;;;1.63;0.80;;;;;;;;;;5077062;28;20173;-82
2023/01/16 00:34:57;;;;;;;4.57;1.17;;;;;;;;;;5070160;28;20181;-82
2023/01/16 00:37:22;;;;;;;1.27;0.93;;;;;;;;;;5067823;28;20232;-83
2023/01/16 00:39:48;;;;;;;2.03;1.20;;;;;;;;;;5073432;28;20191;-82
2023/01/16 00:42:13;;;;;;;1.13;1.00;;;;;;;;;;5074343;28;20182;-83
2023/01/16 00:44:38;;;;;;;3.70;1.20;;;;;;;;;;5066650;28;20185;-82
2023/01/16 00:47:04;;;;;;;5.23;1.13;;;;;;;;;;5065985;28;20199;-82
2023/01/16 00:49:30;;;;;;;3.17;1.10;;;;;;;;;;5063990;28;20182;-83
2023/01/16 00:51:55;;;;;;;3.27;1.27;;;;;;;;;;5064745;28;20212;-83
2023/01/16 00:54:20;;;;;;;2.90;1.07;;;;;;;;;;5078547;28;20247;-83
2023/01/16 00:56:45;;;;;;;2.63;1.07;;;;;;;;;;5067691;28;20189;-83
2023/01/16 00:59:11;;;;;;;1.80;1.17;;;;;;;;;;5062311;28;20205;-82
2023/01/16 01:01:37;;;;;;;4.13;1.10;;;;;;;;;;5068780;28;20185;-82
2023/01/16 01:04:02;;;;;;;1.50;0.90;;;;;;;;;;5069259;28;20599;-83
2023/01/16 01:06:27;;;;;;;2.40;1.40;;;;;;;;;;5064633;28;20209;-83
2023/01/16 01:08:52;;;;;;;2.43;0.90;;;;;;;;;;5060788;28;20170;-82
2023/01/16 01:11:18;;;;;;;3.23;1.07;;;;;;;;;;5065006;28;20185;-83
2023/01/16 01:13:43;;;;;;;3.00;1.03;;;;;;;;;;5080067;28;20178;-83
2023/01/16 01:16:09;;;;;;;1.10;0.90;;;;;;;;;;5065622;28;20282;-82
2023/01/16 01:18:35;;;;;;;2.90;1.10;;;;;;;;;;5064008;28;20183;-83
2023/01/16 01:21:00;;;;;;;3.23;1.70;;;;;;;;;;5056018;28;20186;-83
2023/01/16 01:23:25;;;;;;;2.97;1.20;;;;;;;;;;5073197;28;20221;-83
2023/01/16 01:25:52;;;;;;;1.30;1.10;;;;;;;;;;5067398;28;20292;-83
2023/01/16 01:28:17;;;;;;;2.10;1.00;;;;;;;;;;5072526;28;20177;-83
2023/01/16 01:30:43;;;;;;;2.70;1.50;;;;;;;;;;5070390;28;20188;-83
2023/01/16 01:33:09;;;;;;;2.57;1.40;;;;;;;;;;5065443;28;20266;-83
2023/01/16 01:35:34;;;;;;;1.90;1.00;;;;;;;;;;5083399;28;20229;-83
2023/01/16 01:38:00;;;;;;;2.60;1.20;;;;;;;;;;5066013;28;20280;-83
2023/01/16 01:40:26;;;;;;;2.23;0.90;;;;;;;;;;5076802;28;20289;-83
2023/01/16 01:42:51;;;;;;;2.40;1.20;;;;;;;;;;5063592;28;20208;-83
2023/01/16 01:45:17;;;;;;;5.07;1.20;;;;;;;;;;5078130;28;20198;-83
2023/01/16 01:47:44;;;;;;;1.70;1.03;;;;;;;;;;5069126;28;20181;-83
2023/01/16 01:50:15;;;;;;;4.23;1.30;;;;;;;;;;5067213;28;20184;-83
2023/01/16 01:52:40;;;;;;;1.50;1.23;;;;;;;;;;5066244;28;20178;-84
2023/01/16 01:55:07;;;;;;;4.27;1.30;;;;;;;;;;5070018;28;20177;-83
2023/01/16 01:57:35;;;;;;;3.03;1.30;;;;;;;;;;5064295;28;20193;-84
2023/01/16 02:00:08;;;;;;;2.37;1.50;;;;;;;;;;5067069;28;20185;-83
2023/01/16 02:02:35;;;;;;;3.50;1.83;;;;;;;;;;5057276;28;20177;-83
2023/01/16 02:05:04;;;;;;;6.70;1.97;;;;;;;;;;5075978;28;20295;-83
2023/01/16 02:07:29;;;;;;;2.83;1.03;;;;;;;;;;5078213;28;20247;-83
2023/01/16 02:10:12;;;;;;;2.10;1.33;;;;;;;;;;5071184;28;20185;-83
2023/01/16 02:12:37;;;;;;;3.90;1.70;;;;;;;;;;5079831;28;20276;-83
2023/01/16 02:15:03;;;;;;;3.73;1.30;;;;;;;;;;5067695;28;20285;-83
2023/01/16 02:20:17;;;;;;;5.17;1.23;;;;;;;;;;5063203;28;20249;-83
2023/01/16 02:22:46;;;;;;;1.60;1.03;;;;;;;;;;5079874;28;20189;-83
2023/01/16 02:25:11;;;;;;;3.27;1.30;;;;;;;;;;5073056;28;20253;-83
2023/01/16 02:27:55;;;;;;;6.45;1.38;;;;;;;;;;5065648;28;20186;-83
2023/01/16 02:30:20;;;;;;;3.00;1.13;;;;;;;;;;5065590;28;20174;-82
2023/01/16 02:32:58;;;;;;;3.70;1.50;;;;;;;;;;5069064;28;20192;-83
2023/01/16 02:35:30;;;;;;;2.70;1.17;;;;;;;;;;5062706;28;20296;-84
2023/01/16 02:37:59;;;;;;;2.40;1.00;;;;;;;;;;5065413;28;20234;-83
2023/01/16 02:40:31;;;;;;;5.07;1.47;;;;;;;;;;5068470;28;20217;-83
2023/01/16 02:43:05;;;;;;;1.20;0.90;;;;;;;;;;5064499;28;20247;-83
2023/01/16 02:45:39;;;;;;;1.87;1.00;;;;;;;;;;5065784;28;20207;-83
2023/01/16 02:48:30;;;;;;;1.27;1.03;;;;;;;;;;5058623;28;20264;-83
2023/01/16 02:51:01;;;;;;;2.47;1.20;;;;;;;;;;5044422;28;20189;-83
2023/01/16 02:53:35;;;;;;;3.13;1.27;;;;;;;;;;5064027;28;20185;-83
2023/01/16 02:56:08;;;;;;;2.90;1.00;;;;;;;;;;5080315;28;20470;-83
2023/01/16 02:58:37;;;;;;;2.43;1.20;;;;;;;;;;5073249;28;20181;-83
2023/01/16 03:01:03;;;;;;;4.07;1.20;;;;;;;;;;5075942;28;20219;-83
2023/01/16 03:03:37;;;;;;;4.53;1.30;;;;;;;;;;5065512;28;20185;-83
2023/01/16 03:06:21;;;;;;;2.40;1.30;;;;;;;;;;5070154;28;20250;-83
2023/01/16 03:08:52;;;;;;;3.07;1.30;;;;;;;;;;5064202;28;20178;-83
2023/01/16 03:11:22;;;;;;;2.23;1.47;;;;;;;;;;5065004;28;20177;-83
2023/01/16 03:13:57;;;;;;;3.60;1.40;;;;;;;;;;5078221;28;20187;-83
2023/01/16 03:16:33;;;;;;;2.20;2.00;;;;;;;;;;5061967;28;20567;-83
2023/01/16 03:19:05;;;;;;;2.07;1.00;;;;;;;;;;5067806;28;20185;-83
2023/01/16 03:21:37;;;;;;;5.33;1.33;;;;;;;;;;5058144;28;20217;-83
2023/01/16 03:24:05;;;;;;;3.53;1.23;;;;;;;;;;5063933;28;20213;-83
2023/01/16 03:26:36;;;;;;;3.83;1.00;;;;;;;;;;5082403;28;20201;-83
2023/01/16 03:29:21;;;;;;;3.37;1.33;;;;;;;;;;5067713;28;20199;-83
2023/01/16 03:31:52;;;;;;;2.73;1.17;;;;;;;;;;5063117;28;20189;-83
2023/01/16 03:34:21;;;;;;;2.83;1.53;;;;;;;;;;5066266;28;20255;-83
2023/01/16 03:36:52;;;;;;;2.87;1.43;;;;;;;;;;5062181;28;20233;-84
2023/01/16 03:39:20;;;;;;;3.43;1.10;;;;;;;;;;5072989;28;20186;-83
2023/01/16 03:41:46;;;;;;;3.00;1.10;;;;;;;;;;5058569;28;20208;-83
2023/01/16 03:44:25;;;;;;;1.87;1.33;;;;;;;;;;5065837;28;20205;-83
2023/01/16 03:46:50;;;;;;;3.00;1.10;;;;;;;;;;5062367;28;20206;-83
2023/01/16 03:49:17;;;;;;;2.20;1.27;;;;;;;;;;5068094;28;20178;-83
2023/01/16 03:51:49;;;;;;;2.40;1.07;;;;;;;;;;5066935;28;20190;-83
2023/01/16 03:54:29;;;;;;;3.33;1.30;;;;;;;;;;5057552;28;20184;-83
2023/01/16 03:57:04;;;;;;;2.50;1.30;;;;;;;;;;5067353;28;20216;-82
2023/01/16 03:59:29;;;;;;;3.00;1.57;;;;;;;;;;5061711;28;20184;-84
2023/01/16 04:01:56;;;;;;;2.70;1.20;;;;;;;;;;5073523;28;20189;-83
2023/01/16 04:04:37;;;;;;;2.83;1.37;;;;;;;;;;5065914;28;20192;-83
2023/01/16 04:07:05;;;;;;;3.80;1.00;;;;;;;;;;5070785;28;20204;-83
2023/01/16 04:09:39;;;;;;;1.90;1.27;;;;;;;;;;5075076;28;20268;-83
2023/01/16 04:12:05;;;;;;;3.30;1.40;;;;;;;;;;5064688;28;20319;-83
2023/01/16 04:14:32;;;;;;;3.33;0.97;;;;;;;;;;5069795;28;20176;-83
2023/01/16 04:16:57;;;;;;;3.03;1.53;;;;;;;;;;5075943;28;20264;-83
2023/01/16 04:19:23;;;;;;;2.30;1.10;;;;;;;;;;5071329;28;20272;-83
2023/01/16 04:21:49;;;;;;;1.50;1.23;;;;;;;;;;5075507;28;20185;-83
2023/01/16 04:24:15;;;;;;;3.20;2.10;;;;;;;;;;5068786;28;20181;-83
2023/01/16 04:26:40;;;;;;;6.90;2.23;;;;;;;;;;5068460;28;20201;-83
2023/01/16 04:29:05;;;;;;;3.13;1.60;;;;;;;;;;5068601;28;20185;-83
2023/01/16 04:31:31;;;;;;;2.23;2.03;;;;;;;;;;5088044;28;20177;-84
2023/01/16 04:33:56;;;;;;;3.23;2.77;;;;;;;;;;5069435;28;20182;-83
2023/01/16 04:36:21;;;;;;;3.40;2.37;;;;;;;;;;5077530;28;20232;-82
2023/01/16 04:38:46;;;;;;;12.97;6.53;;;;;;;;;;5085153;28;20190;-83
2023/01/16 04:41:12;;;;;;;8.57;4.77;;;;;;;;;;5068171;28;20178;-83
2023/01/16 04:43:37;;;;;;;3.30;2.90;;;;;;;;;;5065322;28;20227;-83
2023/01/16 04:46:02;;;;;;;4.00;2.87;;;;;;;;;;5081804;28;20244;-83
2023/01/16 04:48:27;;;;;;;2.20;1.33;;;;;;;;;;5069461;28;20292;-83
2023/01/16 04:50:53;;;;;;;3.77;1.83;;;;;;;;;;5070088;28;20178;-83
2023/01/16 04:53:18;;;;;;;1.63;1.20;;;;;;;;;;5084143;28;20187;-83
2023/01/16 04:55:43;;;;;;;1.90;1.10;;;;;;;;;;5066119;28;20183;-83
2023/01/16 04:58:08;;;;;;;3.10;1.00;;;;;;;;;;5080135;28;20186;-83
2023/01/16 05:00:34;;;;;;;2.07;1.10;;;;;;;;;;5070806;28;20181;-83
2023/01/16 05:02:59;;;;;;;6.07;1.40;;;;;;;;;;5068004;28;20241;-83
2023/01/16 05:05:24;;;;;;;2.83;1.27;;;;;;;;;;5066998;28;20228;-83
2023/01/16 05:08:15;;;;;;;2.20;1.70;;;;;;;;;;5068846;28;20184;-83
2023/01/16 05:10:34;;;;;;;2.20;1.83;;;;;;;;;;5069135;28;20181;-83
2023/01/16 05:13:00;;;;;;;2.57;1.50;;;;;;;;;;5066964;28;20208;-83
2023/01/16 05:15:27;;;;;;;3.43;1.50;;;;;;;;;;5066400;28;20231;-83
2023/01/16 05:17:54;;;;;;;3.47;1.50;;;;;;;;;;5070156;28;20212;-83
2023/01/16 05:20:19;;;;;;;2.30;1.47;;;;;;;;;;5064000;28;20284;-83
2023/01/16 05:22:44;;;;;;;2.93;1.70;;;;;;;;;;5072968;28;20260;-82
2023/01/16 05:25:09;;;;;;;3.17;1.70;;;;;;;;;;5067578;28;20197;-83
2023/01/16 05:27:34;;;;;;;3.80;2.57;;;;;;;;;;5061666;28;20189;-83
2023/01/16 05:30:00;;;;;;;6.03;4.80;;;;;;;;;;5066002;28;20292;-84
2023/01/16 05:32:25;;;;;;;3.50;1.90;;;;;;;;;;5072397;28;20217;-83
2023/01/16 05:34:50;;;;;;;3.17;2.20;;;;;;;;;;5074480;28;20174;-83
2023/01/16 05:37:15;;;;;;;2.60;1.73;;;;;;;;;;5064616;28;20229;-83
2023/01/16 05:39:41;;;;;;;2.87;2.13;;;;;;;;;;5076755;28;20635;-83
2023/01/16 05:42:20;;;;;;;2.40;2.20;;;;;;;;;;5061741;28;20223;-82
2023/01/16 05:44:46;;;;;;;1.70;1.60;;;;;;;;;;5075688;28;20198;-83
2023/01/16 05:47:11;;;;;;;4.73;1.97;;;;;;;;;;5066576;28;20178;-83
2023/01/16 05:49:36;;;;;;;3.30;2.30;;;;;;;;;;5064264;28;20177;-84
2023/01/16 05:52:01;;;;;;;2.57;1.97;;;;;;;;;;5065396;28;20181;-83
2023/01/16 05:54:26;;;;;;;4.67;3.83;;;;;;;;;;5068069;28;20230;-83
2023/01/16 05:56:51;;;;;;;3.07;2.10;;;;;;;;;;5067565;28;20178;-84
2023/01/16 05:59:17;;;;;;;2.20;1.97;;;;;;;;;;5064900;28;20193;-83
2023/01/16 06:01:42;;;;;;;2.97;1.70;;;;;;;;;;5064561;28;20248;-83
2023/01/16 06:04:07;;;;;;;2.77;2.57;;;;;;;;;;5064948;28;20181;-83
2023/01/16 06:06:32;;;;;;;2.63;1.40;;;;;;;;;;5073290;28;20222;-84
2023/01/16 06:08:58;;;;;;;3.70;1.80;;;;;;;;;;5078295;28;20172;-83
2023/01/16 06:11:23;;;;;;;2.20;1.70;;;;;;;;;;5058597;28;20212;-82
2023/01/16 06:13:48;;;;;;;2.40;1.60;;;;;;;;;;5056834;28;20209;-83
2023/01/16 06:16:13;;;;;;;1.70;1.60;;;;;;;;;;5071118;28;20212;-83
2023/01/16 06:18:38;;;;;;;1.50;1.40;;;;;;;;;;5067608;28;20282;-84
2023/01/16 06:21:03;;;;;;;3.73;1.97;;;;;;;;;;5067607;28;20193;-83
2023/01/16 06:23:30;;;;;;;1.53;1.33;;;;;;;;;;5081654;28;20185;-82
2023/01/16 06:25:55;;;;;;;2.67;1.53;;;;;;;;;;5058707;28;20651;-83
2023/01/16 06:28:20;;;;;;;4.43;1.90;;;;;;;;;;5062263;28;20277;-83
2023/01/16 06:30:49;;;;;;;2.70;1.77;;;;;;;;;;5061778;28;20192;-83
2023/01/16 06:33:14;;;;;;;2.10;1.90;;;;;;;;;;5076434;28;20245;-84
2023/01/16 06:35:40;;;;;;;3.43;1.70;;;;;;;;;;5066156;28;20329;-83
2023/01/16 06:38:05;;;;;;;3.57;1.90;;;;;;;;;;5070815;28;20232;-83
2023/01/16 06:40:30;;;;;;;2.10;1.90;;;;;;;;;;5055854;28;20184;-82
2023/01/16 06:42:55;;;;;;;1.70;1.60;;;;;;;;;;5061160;28;20191;-83
2023/01/16 06:45:21;;;;;;;2.20;1.57;;;;;;;;;;5077360;28;20197;-83
2023/01/16 06:47:50;;;;;;;2.97;2.10;;;;;;;;;;5075579;28;20191;-82
2023/01/16 06:50:15;;;;;;;5.10;1.77;;;;;;;;;;5074422;28;20183;-83
2023/01/16 06:52:40;;;;;;;4.70;2.00;;;;;;;;;;5067980;28;20192;-83
2023/01/16 06:55:06;;;;;;;3.07;1.90;;;;;;;;;;5075715;28;20182;-83
2023/01/16 06:57:34;;;;;;;3.67;2.30;;;;;;;;;;5082058;28;20199;-83
2023/01/16 06:59:59;;;;;;;2.33;2.00;;;;;;;;;;5064452;28;20185;-83
2023/01/16 07:02:24;;;;;;;2.27;2.07;;;;;;;;;;5061786;28;21120;-84
2023/01/16 07:04:49;;;;;;;4.73;2.80;;;;;;;;;;5064368;28;20192;-83
2023/01/16 07:07:14;;;;;;;3.67;2.00;;;;;;;;;;5061629;28;20183;-83
2023/01/16 07:09:40;;;;;;;4.30;2.17;;;;;;;;;;5067769;28;20196;-83
2023/01/16 07:12:05;;;;;;;4.63;2.80;;;;;;;;;;5061322;28;20178;-82
2023/01/16 07:22:44;;;;;;;6.57;4.10;;;;;;;;;;5067145;28;20235;-83
2023/01/16 07:25:18;;;;;;;2.77;2.13;;;;;;;;;;5061995;28;20205;-84
2023/01/16 07:27:47;;;;;;;2.17;1.97;;;;;;;;;;5056024;28;20179;-83
2023/01/16 07:30:13;;;;;;;2.33;1.90;;;;;;;;;;5059785;28;20182;-84
2023/01/16 07:32:38;;;;;;;2.63;2.27;;;;;;;;;;5064390;28;20184;-84
2023/01/16 07:35:04;;;;;;;3.43;2.30;;;;;;;;;;5068829;28;20263;-84
2023/01/16 07:37:29;;;;;;;2.30;2.10;;;;;;;;;;5064815;28;20281;-84
2023/01/16 07:39:54;;;;;;;3.00;2.40;;;;;;;;;;5054536;28;20196;-83
2023/01/16 07:42:19;;;;;;;3.40;2.00;;;;;;;;;;5062244;28;20176;-84
2023/01/16 07:44:44;;;;;;;3.10;2.10;;;;;;;;;;5056769;28;20312;-84
2023/01/16 07:47:12;;;;;;;3.30;2.60;;;;;;;;;;5065055;28;20213;-83
2023/01/16 07:49:37;;;;;;;6.10;2.90;;;;;;;;;;5064500;28;20188;-83
2023/01/16 07:52:03;;;;;;;3.67;2.57;;;;;;;;;;5063549;28;20260;-84
2023/01/16 07:54:28;;;;;;;2.37;1.80;;;;;;;;;;5056025;28;20181;-83
2023/01/16 07:56:53;;;;;;;3.53;2.17;;;;;;;;;;5056638;28;20212;-84
2023/01/16 07:59:18;;;;;;;2.87;2.27;;;;;;;;;;5067622;28;20185;-83
2023/01/16 08:01:45;;;;;;;2.63;2.33;;;;;;;;;;5060354;28;20183;-83
2023/01/16 08:04:10;;;;;;;2.60;2.40;;;;;;;;;;5063246;28;20189;-84
2023/01/16 08:06:44;;;;;;;4.03;2.20;;;;;;;;;;5065061;28;20197;-83
2023/01/16 08:09:10;;;;;;;2.40;2.20;;;;;;;;;;5063975;28;20239;-84
2023/01/16 08:11:35;;;;;;;3.57;2.70;;;;;;;;;;5075759;28;20177;-85
2023/01/16 08:14:00;;;;;;;3.83;2.43;;;;;;;;;;5064912;28;20217;-84
2023/01/16 08:16:25;;;;;;;3.37;2.93;;;;;;;;;;5060876;28;20192;-84
2023/01/16 08:18:51;;;;;;;4.97;3.17;;;;;;;;;;5060451;28;20185;-83
2023/01/16 08:21:19;;;;;;;2.50;2.30;;;;;;;;;;5062271;28;20169;-83
2023/01/16 08:23:45;;;;;;;3.87;2.53;;;;;;;;;;5062770;28;21497;-85
2023/01/16 08:26:10;;;;;;;2.97;2.67;;;;;;;;;;5062001;28;20212;-84
2023/01/16 08:28:36;;;;;;;3.10;2.37;;;;;;;;;;5062238;28;20173;-83
2023/01/16 08:31:11;;;;;;;2.50;2.30;;;;;;;;;;5058119;28;20234;-83
2023/01/16 08:33:37;;;;;;;2.90;2.60;;;;;;;;;;5068876;28;20184;-84
2023/01/16 08:36:03;;;;;;;4.70;2.90;;;;;;;;;;5065734;28;20205;-83
2023/01/16 08:38:31;;;;;;;3.10;2.60;;;;;;;;;;5062758;28;20236;-78
2023/01/16 08:40:56;;;;;;;3.33;2.50;;;;;;;;;;5062897;28;20184;-82
2023/01/16 08:51:42;;;;;;;2.60;2.40;;;;;;;;;;5068289;28;20242;-82
2023/01/16 08:54:07;;;;;;;2.57;2.30;;;;;;;;;;5062827;28;20208;-83
2023/01/16 08:56:32;;;;;;;3.10;2.77;;;;;;;;;;5059663;28;20204;-82
2023/01/16 08:58:58;;;;;;;2.43;2.23;;;;;;;;;;5062038;28;20178;-82
2023/01/16 09:01:23;;;;;;;3.07;2.60;;;;;;;;;;5081762;28;20185;-83
2023/01/16 09:03:48;;;;;;;3.30;2.53;;;;;;;;;;5065230;28;20182;-83
2023/01/16 09:06:14;;;;;;;3.20;2.33;;;;;;;;;;5071798;28;20220;-82
2023/01/16 09:08:39;;;;;;;2.60;2.40;;;;;;;;;;5063027;28;20200;-82
2023/01/16 09:13:48;;;;;;;2.47;2.27;;;;;;;;;;5067659;28;20272;-83
2023/01/16 09:16:13;;;;;;;4.10;2.43;;;;;;;;;;5070885;28;20268;-83
2023/01/16 09:18:39;;;;;;;2.00;1.80;;;;;;;;;;5064683;28;20177;-82
2023/01/16 09:21:04;;;;;;;3.17;2.40;;;;;;;;;;5062413;28;20188;-81
2023/01/16 09:23:29;;;;;;;2.53;2.10;;;;;;;;;;5068104;28;20338;-82
2023/01/16 09:25:54;;;;;;;4.47;3.70;;;;;;;;;;5065132;28;20197;-82
2023/01/16 09:28:20;;;;;;;2.23;2.03;;;;;;;;;;5071061;28;20173;-82
2023/01/16 09:30:45;;;;;;;2.73;2.30;;;;;;;;;;5065271;28;20190;-82
2023/01/16 09:33:10;;;;;;;2.20;2.00;;;;;;;;;;5069081;28;20250;-82
2023/01/16 09:35:35;;;;;;;2.40;2.20;;;;;;;;;;5067349;28;20228;-82
2023/01/16 09:38:00;;;;;;;2.77;2.47;;;;;;;;;;5069822;28;20257;-82
2023/01/16 09:40:26;;;;;;;1.70;1.60;;;;;;;;;;5075572;28;20280;-82
2023/01/16 09:45:48;;;;;;;2.67;2.47;;;;;;;;;;5059843;28;20212;-83
2023/01/16 09:48:26;;;;;;;6.23;4.33;;;;;;;;;;5062938;28;20246;-82
2023/01/16 09:50:53;;;;;;;2.10;1.80;;;;;;;;;;5064982;28;20177;-81
2023/01/16 09:59:34;;;;;;;2.87;2.00;;;;;;;;;;5012687;28;20250;-81
2023/01/16 10:02:08;;;;;;;1.83;1.73;;;;;;;;;;4995320;28;20210;-82
2023/01/16 10:04:35;;;;;;;5.03;2.60;;;;;;;;;;5002418;28;20189;-82
2023/01/16 10:07:19;;;;;;;2.50;1.80;;;;;;;;;;4994812;28;20203;-82
2023/01/16 10:10:02;;;;;;;2.00;1.80;;;;;;;;;;4996614;28;20179;-81
2023/01/16 10:12:33;;;;;;;1.87;1.73;;;;;;;;;;5012535;28;20174;-81
2023/01/16 10:15:14;;;;;;;2.17;1.67;;;;;;;;;;5010021;28;20175;-82
2023/01/16 10:17:39;;;;;;;2.37;1.30;;;;;;;;;;5008188;28;20191;-81
2023/01/16 10:20:22;;;;;;;2.10;1.70;;;;;;;;;;5011092;28;20180;-82
2023/01/16 10:22:57;;;;;;;1.13;1.03;;;;;;;;;;4996304;28;20179;-81
2023/01/16 10:25:23;;;;;;;1.70;1.53;;;;;;;;;;4993582;28;20210;-81
2023/01/16 10:27:54;;;;;;;1.60;1.50;;;;;;;;;;5010773;28;20279;-81
2023/01/16 10:30:28;;;;;;;2.20;1.60;;;;;;;;;;5039069;28;20204;-81
2023/01/16 10:33:14;;;;;;;1.67;1.20;;;;;;;;;;5073781;28;20188;-81
2023/01/16 10:35:43;;;;;;;1.67;1.57;;;;;;;;;;5067136;28;20205;-81
2023/01/16 10:38:28;;;;;;;3.27;2.97;;;;;;;;;;5072400;28;20261;-81
2023/01/16 10:40:54;;;;;;;2.33;2.17;;;;;;;;;;5068784;28;20174;-81
2023/01/16 10:51:41;;;;;;;6.83;4.30;;;;;;;;;;5076221;28;20310;-81
2023/01/16 10:54:06;;;;;;;2.77;2.37;;;;;;;;;;5071125;28;20264;-81
2023/01/16 10:56:38;;;;;;;3.30;3.00;;;;;;;;;;5083153;28;20215;-81
2023/01/16 10:59:03;;;;;;;3.80;3.10;;;;;;;;;;5071869;28;20189;-81
2023/01/16 11:01:30;;;;;;;3.97;3.57;;;;;;;;;;5073490;28;20176;-82
2023/01/16 11:03:58;;;;;;;4.40;2.13;;;;;;;;;;5075624;28;20176;-81
2023/01/16 11:06:24;;;;;;;5.70;4.03;;;;;;;;;;5070893;28;20260;-81
2023/01/16 11:08:54;;;;;;;5.27;4.40;;;;;;;;;;5077526;28;20178;-81
2023/01/16 11:19:42;;;;;;;1.87;1.33;;;;;;;;;;5070963;28;20191;-81
2023/01/16 11:22:21;;;;;;;4.77;2.80;;;;;;;;;;5080101;28;20238;-81
2023/01/16 11:24:46;;;;;;;4.50;2.03;;;;;;;;;;5077232;28;20172;-81
2023/01/16 11:27:18;;;;;;;2.03;1.83;;;;;;;;;;5068199;28;20208;-81
2023/01/16 11:29:43;;;;;;;1.67;1.50;;;;;;;;;;5072223;28;20260;-81
2023/01/16 11:32:10;;;;;;;1.40;1.30;;;;;;;;;;5068782;28;20220;-81
2023/01/16 11:34:36;;;;;;;3.30;2.63;;;;;;;;;;5063855;28;20171;-81
2023/01/16 11:37:03;;;;;;;1.97;1.53;;;;;;;;;;5076605;28;20228;-81
2023/01/16 11:39:29;;;;;;;3.70;1.73;;;;;;;;;;5073578;28;20276;-81
2023/01/16 11:41:56;;;;;;;19.90;10.60;;;;;;;;;;5070514;28;20173;-81
2023/01/16 11:47:12;;;;;;;1.93;1.73;;;;;;;;;;5062285;28;20208;-81
2023/01/16 11:49:39;;;;;;;2.50;2.13;;;;;;;;;;5074909;28;20464;-81
2023/01/16 11:52:04;;;;;;;2.93;2.30;;;;;;;;;;5064954;28;20173;-81
2023/01/16 11:54:33;;;;;;;3.07;2.40;;;;;;;;;;5065885;28;20259;-81
2023/01/16 12:00:05;;;;;;;4.43;3.10;;;;;;;;;;5067941;28;20196;-81
2023/01/16 12:02:50;;;;;;;3.00;2.50;;;;;;;;;;5068493;28;20173;-81
2023/01/16 12:08:12;;;;;;;1.67;1.57;;;;;;;;;;5070491;28;20215;-81
2023/01/16 12:10:57;;;;;;;1.60;1.50;;;;;;;;;;5068228;28;20237;-81
2023/01/16 12:16:32;;;;;;;1.80;1.67;;;;;;;;;;5079858;28;20212;-81
2023/01/16 12:19:06;;;;;;;1.77;1.67;;;;;;;;;;5065161;28;20184;-80
2023/01/16 12:21:54;;;;;;;2.13;1.93;;;;;;;;;;5084157;28;20270;-81
2023/01/16 12:24:33;;;;;;;2.53;1.70;;;;;;;;;;5068220;28;20244;-81
2023/01/16 12:27:17;;;;;;;2.83;1.97;;;;;;;;;;5062511;28;20205;-81
2023/01/16 12:29:42;;;;;;;2.17;1.97;;;;;;;;;;5068087;28;20178;-81
2023/01/16 12:32:18;;;;;;;2.63;2.20;;;;;;;;;;5081450;28;20246;-80
2023/01/16 12:35:16;;;;;;;3.20;2.40;;;;;;;;;;5080901;28;20173;-80
2023/01/16 12:37:41;;;;;;;1.90;1.70;;;;;;;;;;5043674;28;20267;-81
2023/01/16 12:40:16;;;;;;;3.85;2.53;;;;;;;;;;5077701;28;20189;-81
2023/01/16 12:45:38;;;;;;;3.00;2.70;;;;;;;;;;5070343;28;20291;-81
2023/01/16 12:48:11;;;;;;;2.33;2.13;;;;;;;;;;5080878;28;20193;-81
2023/01/16 12:50:48;;;;;;;2.10;1.90;;;;;;;;;;5083402;28;20167;-81
2023/01/16 12:53:21;;;;;;;4.00;2.10;;;;;;;;;;5076749;28;20229;-81
2023/01/16 12:55:54;;;;;;;2.20;2.00;;;;;;;;;;5074109;28;20227;-81
2023/01/16 12:58:23;;;;;;;2.97;1.80;;;;;;;;;;5067684;28;20186;-81
2023/01/16 13:01:04;;;;;;;2.00;1.80;;;;;;;;;;5082611;28;20189;-80
2023/01/16 13:03:38;;;;;;;3.47;2.37;;;;;;;;;;5102837;27;20180;-80
2023/01/16 13:06:05;;;;;;;2.23;2.03;;;;;;;;;;5074349;28;20208;-80
2023/01/16 13:08:35;;;;;;;2.60;2.27;;;;;;;;;;5092443;28;20191;-81
2023/01/16 13:13:52;;;;;;;3.00;2.70;;;;;;;;;;5069925;28;20238;-81
2023/01/16 13:16:30;;;;;;;2.23;2.00;;;;;;;;;;5073736;28;20187;-80
2023/01/16 13:18:58;;;;;;;3.33;2.10;;;;;;;;;;5078712;28;20247;-81
2023/01/16 13:21:27;;;;;;;2.10;1.90;;;;;;;;;;5082040;28;20185;-80
2023/01/16 13:23:55;;;;;;;2.60;2.13;;;;;;;;;;5082055;28;20188;-80
2023/01/16 13:26:21;;;;;;;1.70;1.60;;;;;;;;;;5068557;28;20197;-80
2023/01/16 13:28:51;;;;;;;4.10;3.23;;;;;;;;;;5074171;28;20185;-81
2023/01/16 13:31:35;;;;;;;2.93;2.50;;;;;;;;;;5076716;28;20236;-81
2023/01/16 13:34:09;;;;;;;1.97;1.87;;;;;;;;;;5068915;28;20182;-80
2023/01/16 13:36:50;;;;;;;2.20;1.97;;;;;;;;;;5073965;28;20311;-80
2023/01/16 13:39:35;;;;;;;2.63;1.80;;;;;;;;;;5077310;28;20184;-80
2023/01/16 13:42:01;;;;;;;1.60;1.50;;;;;;;;;;5069827;28;20264;-80
2023/01/16 13:47:17;;;;;;;2.07;1.87;;;;;;;;;;5078505;28;20219;-80
2023/01/16 13:49:47;;;;;;;3.20;1.53;;;;;;;;;;5081429;28;20201;-80
2023/01/16 13:52:19;;;;;;;2.53;1.87;;;;;;;;;;5079154;28;20209;-80
2023/01/16 13:54:47;;;;;;;9.30;4.37;;;;;;;;;;5063840;28;20241;-80
2023/01/16 13:57:19;;;;;;;1.70;1.60;;;;;;;;;;5071239;28;20204;-80
2023/01/16 13:59:54;;;;;;;2.50;1.83;;;;;;;;;;5086766;28;20189;-80
2023/01/16 14:02:35;;;;;;;3.47;2.03;;;;;;;;;;5083172;28;20196;-80
2023/01/16 14:05:11;;;;;;;4.27;3.33;;;;;;;;;;5074194;28;20185;-80
2023/01/16 14:10:44;;;;;;;5.07;3.37;;;;;;;;;;5063596;28;20192;-80
2023/01/16 14:13:14;;;;;;;4.30;3.50;;;;;;;;;;5058623;28;20177;-80
2023/01/16 14:18:59;;;;;;;2.63;2.20;;;;;;;;;;5068384;28;20191;-80
2023/01/16 14:21:25;;;;;;;8.63;5.10;;;;;;;;;;5064395;28;20181;-80
2023/01/16 14:24:01;;;;;;;2.67;2.30;;;;;;;;;;5066853;28;20181;-80
2023/01/16 14:26:49;;;;;;;5.50;3.93;;;;;;;;;;5062998;28;20231;-80
2023/01/16 14:29:20;;;;;;;7.20;4.77;;;;;;;;;;5074104;28;20183;-80
2023/01/16 14:32:06;;;;;;;12.43;8.20;;;;;;;;;;5065483;28;20183;-80
2023/01/16 14:34:36;;;;;;;8.07;5.30;;;;;;;;;;5047451;28;20212;-80
2023/01/16 14:37:10;;;;;;;19.27;10.00;;;;;;;;;;5063814;28;20233;-80
2023/01/16 14:39:38;;;;;;;4.67;3.83;;;;;;;;;;5063375;28;20181;-80
2023/01/16 14:56:50;;;;;;;2.93;2.73;;;;;;;;;;5060776;28;20187;-80
2023/01/16 14:59:20;;;;;;;2.70;2.40;;;;;;;;;;5056773;28;20272;-79
2023/01/16 15:02:20;;;;;;;4.37;3.43;;;;;;;;;;5064560;28;20285;-80
2023/01/16 15:05:14;;;;;;;4.60;3.30;;;;;;;;;;5063768;28;20177;-79
2023/01/16 15:07:56;;;;;;;1.70;1.60;;;;;;;;;;5043046;28;20224;-79
2023/01/16 15:10:42;;;;;;;2.20;2.00;;;;;;;;;;5061095;28;20182;-79
2023/01/16 15:13:22;;;;;;;2.00;1.90;;;;;;;;;;5064429;28;20184;-80
2023/01/16 15:15:58;;;;;;;2.60;2.40;;;;;;;;;;5061664;28;20180;-79
2023/01/16 15:23:56;;;;;;;1.80;1.70;;;;;;;;;;5067617;28;20302;-79
2023/01/16 15:26:21;;;;;;;1.80;1.70;;;;;;;;;;5057578;28;20205;-79
2023/01/16 15:28:58;;;;;;;2.80;2.60;;;;;;;;;;5062019;28;20538;-79
2023/01/16 15:31:26;;;;;;;2.47;1.73;;;;;;;;;;5061007;28;20177;-79
2023/01/16 15:34:00;;;;;;;2.23;2.03;;;;;;;;;;5065689;28;20189;-79
2023/01/16 15:36:36;;;;;;;2.47;2.00;;;;;;;;;;5056893;28;20224;-79
2023/01/16 15:39:11;;;;;;;4.07;2.90;;;;;;;;;;5065484;28;20185;-79
2023/01/16 15:47:20;;;;;;;4.47;3.30;;;;;;;;;;5064270;28;20220;-79
2023/01/16 15:49:51;;;;;;;4.03;2.70;;;;;;;;;;5070306;28;20306;-79
2023/01/16 15:52:17;;;;;;;2.07;1.90;;;;;;;;;;5062708;28;20174;-79
2023/01/16 15:54:42;;;;;;;1.77;1.67;;;;;;;;;;5055930;28;20185;-79
2023/01/16 15:57:14;;;;;;;2.37;2.23;;;;;;;;;;5074550;28;20182;-79
2023/01/16 15:59:48;;;;;;;2.40;2.20;;;;;;;;;;5059731;28;20177;-79
2023/01/16 16:02:13;;;;;;;3.27;2.90;;;;;;;;;;5065168;28;20188;-79
2023/01/16 16:04:38;;;;;;;2.47;2.17;;;;;;;;;;5064640;28;20186;-79
2023/01/16 16:07:04;;;;;;;1.50;1.40;;;;;;;;;;5063277;28;20292;-79
2023/01/16 16:09:29;;;;;;;3.23;3.00;;;;;;;;;;5057962;28;20263;-79
2023/01/16 16:11:55;;;;;;;4.20;3.30;;;;;;;;;;5057545;28;20178;-79
2023/01/16 16:20:22;;;;;;;1.10;1.00;;;;;;;;;;5058897;28;20208;-79
2023/01/16 16:22:47;;;;;;;2.13;1.93;;;;;;;;;;5057109;28;20189;-79
2023/01/16 16:25:18;;;;;;;2.37;2.17;;;;;;;;;;5053874;28;20262;-79
2023/01/16 16:27:43;;;;;;;1.30;1.20;;;;;;;;;;5055963;28;20182;-79
2023/01/16 16:30:16;;;;;;;0.90;0.90;;;;;;;;;;5060583;28;20170;-79
2023/01/16 16:32:41;;;;;;;1.10;1.00;;;;;;;;;;5074526;28;20181;-79
2023/01/16 16:35:15;;;;;;;0.50;0.50;;;;;;;;;;5064018;28;20210;-79
2023/01/16 16:37:41;;;;;;;0.37;0.37;;;;;;;;;;5060375;28;20232;-79
2023/01/16 16:40:13;;;;;;;0.40;0.40;;;;;;;;;;5055790;28;20692;-79